Time;durP1;ratioP1;P1;durP2;ratioP2;P2;SDS_P1;SDS_P2;PMS_P1;PMS_P2;Temp;Humidity;BMP_temperature;BMP_pressure;BME280_temperature;BME280_humidity;BME280_pressure;Samples;Min_cycle;Max_cycle;Signal;HPM_P1;HPM_P2
2021/04/29 00:02:29;;;;;;;20.88;12.78;;;;;;;4.96;43.21;99446.05;146847;1147;104574;-80
2021/04/29 00:05:32;;;;;;;22.22;11.93;;;;;;;4.90;43.13;99442.15;147101;1148;104570;-82
2021/04/29 00:08:36;;;;;;;19.82;12.15;;;;;;;4.86;42.64;99440.75;146848;1147;104615;-81
2021/04/29 00:11:40;;;;;;;19.52;11.53;;;;;;;4.82;42.83;99437.55;147019;1147;104579;-80
2021/04/29 00:14:43;;;;;;;21.80;12.47;;;;;;;4.78;43.10;99440.61;147062;1148;104578;-81
2021/04/29 00:17:46;;;;;;;22.60;12.80;;;;;;;4.77;43.64;99434.46;147239;1147;104453;-81
2021/04/29 00:20:54;;;;;;;21.82;12.00;;;;;;;4.67;43.48;99431.80;147221;1147;104636;-83
2021/04/29 00:23:58;;;;;;;22.22;13.43;;;;;;;4.63;43.60;99434.86;146901;1147;104575;-81
2021/04/29 00:27:01;;;;;;;22.85;12.45;;;;;;;4.60;43.53;99435.98;147133;1147;104451;-82
2021/04/29 00:30:07;;;;;;;20.00;11.97;;;;;;;4.56;43.93;99431.94;146878;1148;104604;-87
2021/04/29 00:33:11;;;;;;;21.55;12.93;;;;;;;4.53;43.34;99426.91;146839;1148;104578;-83
2021/04/29 00:36:14;;;;;;;17.40;10.68;;;;;;;4.50;43.67;99421.88;146992;1147;104565;-82
2021/04/29 00:39:17;;;;;;;23.20;13.05;;;;;;;4.46;44.28;99423.13;147270;1148;104563;-80
2021/04/29 00:42:20;;;;;;;21.93;12.73;;;;;;;4.42;44.23;99413.80;147249;1148;104506;-77
2021/04/29 00:45:23;;;;;;;24.30;12.63;;;;;;;4.41;44.23;99412.15;146980;1147;104564;-83
2021/04/29 00:48:27;;;;;;;23.90;12.98;;;;;;;4.40;44.02;99410.47;146898;1147;104575;-83
2021/04/29 00:51:30;;;;;;;22.82;13.38;;;;;;;4.39;43.85;99406.99;146922;1148;104494;-82
2021/04/29 00:54:33;;;;;;;27.67;16.30;;;;;;;4.36;44.14;99406.42;146895;1148;104604;-84
2021/04/29 00:57:36;;;;;;;29.02;15.90;;;;;;;4.31;44.06;99410.30;146902;1147;104950;-82
2021/04/29 01:00:40;;;;;;;30.10;15.13;;;;;;;4.30;43.99;99402.51;146856;1148;104453;-82
2021/04/29 01:03:51;;;;;;;26.68;14.90;;;;;;;4.26;44.77;99399.30;146873;1146;104592;-83
2021/04/29 01:07:00;;;;;;;23.20;14.10;;;;;;;4.24;44.52;99398.59;146870;1147;104483;-83
2021/04/29 01:10:12;;;;;;;23.15;13.65;;;;;;;4.21;44.75;99398.84;147037;1147;104630;-85
2021/04/29 01:13:22;;;;;;;24.30;13.85;;;;;;;4.19;45.32;99394.69;147357;1147;104496;-84
2021/04/29 01:16:26;;;;;;;23.23;14.10;;;;;;;4.15;45.41;99396.75;147252;1148;104476;-82
2021/04/29 01:19:40;;;;;;;23.38;14.58;;;;;;;4.11;45.28;99400.63;146936;1148;104484;-78
2021/04/29 01:22:53;;;;;;;21.95;13.15;;;;;;;4.08;44.70;99392.96;147295;1147;104581;-83
2021/04/29 01:26:00;;;;;;;20.48;12.45;;;;;;;4.06;46.02;99392.27;147173;1148;104524;-80
2021/04/29 01:29:07;;;;;;;21.42;13.13;;;;;;;4.01;44.88;99391.84;147247;1147;104556;-79
2021/04/29 01:32:11;;;;;;;19.25;12.60;;;;;;;3.98;45.21;99390.28;147117;1147;104581;-79
2021/04/29 01:35:15;;;;;;;19.60;12.28;;;;;;;3.97;46.33;99391.27;147231;1148;104529;-81
2021/04/29 01:38:18;;;;;;;20.35;13.03;;;;;;;3.98;46.02;99395.56;147324;1147;104451;-81
2021/04/29 01:41:22;;;;;;;20.48;13.05;;;;;;;3.98;45.62;99392.09;147136;1148;104640;-81
2021/04/29 01:44:28;;;;;;;19.10;12.27;;;;;;;3.98;45.48;99392.92;147210;1147;104450;-82
2021/04/29 01:47:33;;;;;;;19.30;12.10;;;;;;;3.94;45.48;99391.52;147332;1148;104480;-85
2021/04/29 01:50:37;;;;;;;19.32;11.28;;;;;;;3.91;45.24;99391.80;146996;1148;104559;-85
2021/04/29 01:53:41;;;;;;;20.72;12.00;;;;;;;3.89;45.68;99393.73;146948;1147;104562;-85
2021/04/29 01:56:45;;;;;;;19.03;10.93;;;;;;;3.87;46.53;99382.48;147105;1148;104515;-86
2021/04/29 01:59:48;;;;;;;20.92;11.73;;;;;;;3.85;46.53;99382.60;147296;1148;104660;-85
2021/04/29 02:02:51;;;;;;;19.90;11.40;;;;;;;3.86;46.51;99389.53;147008;1147;104505;-85
2021/04/29 02:05:56;;;;;;;18.98;11.15;;;;;;;3.86;46.03;99393.98;147051;1148;104457;-82
2021/04/29 02:09:00;;;;;;;17.48;10.93;;;;;;;3.84;46.13;99380.09;147196;1148;104456;-84
2021/04/29 02:12:06;;;;;;;18.27;10.95;;;;;;;3.86;46.56;99378.98;146962;1147;104578;-83
2021/04/29 02:15:11;;;;;;;23.40;11.85;;;;;;;3.85;46.11;99382.60;147275;1148;104458;-78
2021/04/29 02:18:18;;;;;;;20.05;11.85;;;;;;;3.82;46.54;99377.58;147149;1147;104573;-83
2021/04/29 02:21:23;;;;;;;20.97;11.75;;;;;;;3.80;47.13;99384.79;147283;1148;104586;-80
2021/04/29 02:24:30;;;;;;;19.12;10.85;;;;;;;3.81;47.10;99377.70;147003;1148;104487;-80
2021/04/29 02:27:35;;;;;;;20.15;11.20;;;;;;;3.80;46.35;99376.87;147088;1145;104572;-81
2021/04/29 02:30:38;;;;;;;19.80;11.93;;;;;;;3.80;47.13;99374.23;147365;1146;104578;-81
2021/04/29 02:33:42;;;;;;;18.87;11.43;;;;;;;3.79;47.12;99367.30;147259;1147;104585;-81
2021/04/29 02:36:45;;;;;;;16.05;10.88;;;;;;;3.73;46.63;99373.94;147150;1148;104556;-85
2021/04/29 02:39:48;;;;;;;21.37;11.43;;;;;;;3.72;46.71;99372.25;146970;1147;104574;-83
2021/04/29 02:42:52;;;;;;;19.00;11.63;;;;;;;3.70;47.25;99370.72;146923;1147;105154;-81
2021/04/29 02:45:55;;;;;;;18.40;11.75;;;;;;;3.67;46.98;99374.44;147116;1147;104489;-80
2021/04/29 02:48:58;;;;;;;20.17;11.90;;;;;;;3.64;47.81;99374.72;147382;1147;104575;-79
2021/04/29 02:52:02;;;;;;;20.57;11.73;;;;;;;3.61;48.25;99374.96;147286;1148;104511;-79
2021/04/29 02:55:07;;;;;;;18.60;11.33;;;;;;;3.60;47.50;99362.76;147215;1148;104476;-79
2021/04/29 02:58:11;;;;;;;18.15;11.05;;;;;;;3.60;47.20;99362.76;147209;1147;104607;-78
2021/04/29 03:01:14;;;;;;;17.95;11.03;;;;;;;3.62;47.99;99370.52;146933;1148;104410;-77
2021/04/29 03:04:18;;;;;;;18.05;11.18;;;;;;;3.60;47.74;99367.17;146830;1147;104562;-78
2021/04/29 03:07:21;;;;;;;20.52;12.10;;;;;;;3.58;46.88;99374.38;146767;1147;104581;-78
2021/04/29 03:10:24;;;;;;;20.72;11.15;;;;;;;3.57;48.41;99370.09;147201;1148;104489;-81
2021/04/29 03:13:27;;;;;;;18.35;11.63;;;;;;;3.57;48.29;99370.92;147183;1147;104735;-77
2021/04/29 03:16:31;;;;;;;17.73;11.87;;;;;;;3.59;47.76;99371.62;147196;1148;104578;-74
2021/04/29 03:19:34;;;;;;;19.50;12.10;;;;;;;3.60;47.71;99369.81;147253;1148;104479;-74
2021/04/29 03:22:37;;;;;;;20.02;12.23;;;;;;;3.60;47.80;99361.90;147013;1147;104493;-78
2021/04/29 03:25:41;;;;;;;18.57;11.90;;;;;;;3.59;48.28;99361.07;147257;1147;104879;-76
2021/04/29 03:28:44;;;;;;;19.12;11.97;;;;;;;3.63;49.05;99367.75;147279;1147;104660;-76
2021/04/29 03:31:48;;;;;;;25.12;14.78;;;;;;;3.66;48.31;99364.04;147256;1148;104542;-77
2021/04/29 03:34:51;;;;;;;21.20;12.35;;;;;;;3.68;48.42;99365.56;147083;1147;104585;-78
2021/04/29 03:37:54;;;;;;;19.40;11.93;;;;;;;3.73;48.55;99362.52;146880;1147;104560;-77
2021/04/29 03:40:57;;;;;;;19.90;13.33;;;;;;;3.77;49.01;99360.47;147031;1147;104929;-82
2021/04/29 03:44:00;;;;;;;20.97;13.13;;;;;;;3.82;49.14;99367.02;146897;1147;104617;-77
2021/04/29 03:47:04;;;;;;;22.35;13.78;;;;;;;3.87;48.92;99354.28;147126;1147;104484;-78
2021/04/29 03:50:09;;;;;;;19.37;12.67;;;;;;;3.92;48.53;99352.05;147019;1148;104483;-77
2021/04/29 03:53:12;;;;;;;22.13;12.93;;;;;;;3.99;48.26;99355.02;146829;1147;104591;-78
2021/04/29 03:56:15;;;;;;;22.42;14.13;;;;;;;4.06;48.37;99355.30;147021;1147;104531;-77
2021/04/29 03:59:19;;;;;;;21.00;12.93;;;;;;;4.16;49.50;99352.69;147197;1148;104669;-77
2021/04/29 04:02:22;;;;;;;22.52;13.65;;;;;;;4.25;49.59;99355.39;147222;1147;104486;-81
2021/04/29 04:05:25;;;;;;;23.40;13.68;;;;;;;4.34;48.92;99353.73;147172;1148;104463;-79
2021/04/29 04:08:29;;;;;;;21.80;13.93;;;;;;;4.44;49.51;99351.11;147186;1147;104492;-79
2021/04/29 04:11:32;;;;;;;22.17;12.97;;;;;;;4.54;49.68;99346.66;147314;1147;104576;-76
2021/04/29 04:14:35;;;;;;;22.73;13.80;;;;;;;4.65;49.54;99351.83;147214;1147;104578;-76
2021/04/29 04:17:38;;;;;;;20.65;13.80;;;;;;;4.76;49.47;99356.17;147232;1148;104415;-79
2021/04/29 04:20:42;;;;;;;23.02;14.78;;;;;;;4.87;49.86;99356.04;147191;1147;104575;-78
2021/04/29 04:23:45;;;;;;;20.30;13.97;;;;;;;5.02;49.66;99351.17;147203;1147;104486;-78
2021/04/29 04:26:48;;;;;;;22.07;13.50;;;;;;;5.22;49.64;99351.16;147745;1148;104471;-78
2021/04/29 04:29:52;;;;;;;22.97;15.33;;;;;;;5.45;49.87;99352.50;147738;1147;104535;-78
2021/04/29 04:32:55;;;;;;;21.83;13.73;;;;;;;5.71;50.34;99354.52;147638;1146;104563;-77
2021/04/29 04:35:58;;;;;;;22.00;14.47;;;;;;;5.96;50.13;99349.59;147721;1148;104454;-79
2021/04/29 04:39:02;;;;;;;24.85;15.38;;;;;;;6.21;50.32;99350.73;147749;1148;104495;-76
2021/04/29 04:42:06;;;;;;;27.37;15.70;;;;;;;6.46;49.76;99352.67;147787;1147;104485;-79
2021/04/29 04:45:11;;;;;;;22.40;15.38;;;;;;;6.74;49.97;99351.82;147394;1148;104565;-80
2021/04/29 04:48:15;;;;;;;24.30;16.02;;;;;;;6.97;50.62;99350.38;147791;1148;104577;-81
2021/04/29 04:55:29;;;;;;;25.60;16.87;;;;;;;7.46;50.50;99336.65;147724;1147;104478;-78
2021/04/29 04:58:32;;;;;;;23.70;16.37;;;;;;;7.65;50.91;99333.78;147765;1147;104577;-78
2021/04/29 05:01:36;;;;;;;25.30;16.52;;;;;;;7.82;50.70;99329.41;147789;1147;104604;-78
2021/04/29 05:04:39;;;;;;;21.82;15.60;;;;;;;8.00;50.20;99325.83;147768;1147;104492;-78
2021/04/29 05:07:42;;;;;;;23.03;15.83;;;;;;;8.17;50.46;99314.27;147787;1147;104476;-78
2021/04/29 05:10:46;;;;;;;27.53;16.13;;;;;;;8.29;50.49;99313.98;147628;1147;104570;-78
2021/04/29 05:13:49;;;;;;;22.25;14.75;;;;;;;8.43;50.29;99318.72;147620;1148;104559;-78
2021/04/29 05:16:52;;;;;;;22.07;16.77;;;;;;;8.54;50.06;99310.41;147366;1147;105141;-79
2021/04/29 05:19:55;;;;;;;22.70;16.17;;;;;;;8.68;50.17;99313.43;147709;1147;104557;-77
2021/04/29 05:22:58;;;;;;;23.90;16.27;;;;;;;8.81;50.43;99311.12;147427;1147;104394;-77
2021/04/29 05:26:01;;;;;;;24.27;16.10;;;;;;;8.92;50.24;99300.16;147767;1148;104489;-77
2021/04/29 05:29:07;;;;;;;20.68;14.85;;;;;;;9.02;49.97;99292.01;147709;1147;104572;-77
2021/04/29 05:32:10;;;;;;;20.90;14.80;;;;;;;9.16;50.27;99296.67;147722;1148;104614;-77
2021/04/29 05:35:13;;;;;;;20.00;14.90;;;;;;;9.31;50.35;99296.80;147523;1147;104486;-78
2021/04/29 05:38:16;;;;;;;22.67;15.50;;;;;;;9.40;50.37;99302.96;147475;1147;104554;-75
2021/04/29 05:41:20;;;;;;;21.90;15.43;;;;;;;9.50;49.94;99305.44;147550;1147;104472;-74
2021/04/29 05:44:23;;;;;;;20.45;15.03;;;;;;;9.63;50.31;99297.75;147698;1147;104450;-75
2021/04/29 05:47:26;;;;;;;20.05;15.40;;;;;;;9.73;51.63;99302.89;147724;1147;104586;-74
2021/04/29 05:50:29;;;;;;;22.05;15.20;;;;;;;9.85;50.21;99295.35;147788;1147;104484;-75
2021/04/29 05:53:32;;;;;;;23.05;16.25;;;;;;;9.99;50.40;99294.65;147357;1147;104566;-74
2021/04/29 05:56:36;;;;;;;23.32;15.55;;;;;;;10.17;50.66;99305.88;147771;1147;104568;-74
2021/04/29 05:59:39;;;;;;;23.65;16.17;;;;;;;10.33;50.82;99301.50;147531;1147;104983;-77
2021/04/29 06:02:42;;;;;;;22.33;15.23;;;;;;;10.41;49.92;99298.78;147265;1147;104500;-74
2021/04/29 06:05:45;;;;;;;20.62;14.80;;;;;;;10.50;49.88;99300.40;147507;1147;104496;-77
2021/04/29 06:08:50;;;;;;;21.75;15.58;;;;;;;10.54;49.83;99296.37;147715;1148;104569;-74
2021/04/29 06:11:53;;;;;;;23.07;14.63;;;;;;;10.55;49.91;99294.55;147729;1147;104563;-74
2021/04/29 06:14:57;;;;;;;22.03;15.20;;;;;;;10.59;49.87;99295.86;147752;1147;104515;-73
2021/04/29 06:18:00;;;;;;;22.90;15.32;;;;;;;10.64;50.45;99295.31;147776;1147;104899;-74
2021/04/29 06:21:03;;;;;;;20.45;16.02;;;;;;;10.65;50.05;99292.48;147790;1147;104570;-74
2021/04/29 06:24:07;;;;;;;22.65;15.05;;;;;;;10.74;50.34;99290.56;147474;1147;104540;-74
2021/04/29 06:27:11;;;;;;;20.95;14.50;;;;;;;10.85;50.16;99287.48;147520;1147;104490;-74
2021/04/29 06:30:16;;;;;;;19.37;14.83;;;;;;;10.92;49.31;99284.95;147749;1147;104681;-74
2021/04/29 06:33:20;;;;;;;20.82;15.58;;;;;;;11.03;50.26;99287.19;147710;1147;104563;-74
2021/04/29 06:36:23;;;;;;;21.75;15.98;;;;;;;11.15;49.72;99284.92;147681;1148;104482;-74
2021/04/29 06:39:27;;;;;;;21.12;15.43;;;;;;;11.26;50.08;99281.81;147390;1147;104490;-74
2021/04/29 06:42:30;;;;;;;21.40;14.78;;;;;;;11.42;49.92;99282.67;147702;1147;104563;-74
2021/04/29 06:45:33;;;;;;;21.97;15.73;;;;;;;11.59;49.92;99278.81;147742;1145;104478;-76
2021/04/29 06:48:36;;;;;;;21.33;15.47;;;;;;;11.75;49.70;99278.61;147226;1148;104626;-75
2021/04/29 06:51:39;;;;;;;24.37;15.93;;;;;;;11.91;49.29;99271.45;147535;1147;104478;-74
2021/04/29 06:54:42;;;;;;;25.77;16.63;;;;;;;12.06;49.37;99258.89;147717;1147;104569;-75
2021/04/29 06:57:45;;;;;;;24.55;16.60;;;;;;;12.27;49.55;99257.28;147748;1148;104682;-74
2021/04/29 07:00:48;;;;;;;20.88;15.83;;;;;;;12.43;49.30;99256.22;147745;1147;104572;-77
2021/04/29 07:03:51;;;;;;;22.90;15.40;;;;;;;12.56;49.34;99249.15;147695;1147;104679;-75
2021/04/29 07:06:55;;;;;;;22.27;15.77;;;;;;;12.67;49.08;99255.03;147797;1147;104522;-74
2021/04/29 07:09:59;;;;;;;23.67;15.23;;;;;;;12.81;48.79;99259.48;147729;1147;104469;-75
2021/04/29 07:13:02;;;;;;;24.17;15.53;;;;;;;12.94;48.98;99251.56;147729;1147;104569;-75
2021/04/29 07:16:06;;;;;;;23.20;16.32;;;;;;;13.11;49.02;99264.69;147653;1147;104579;-75
2021/04/29 07:19:09;;;;;;;19.65;15.10;;;;;;;13.23;48.76;99260.45;147703;1148;104599;-74
2021/04/29 07:22:12;;;;;;;20.12;14.85;;;;;;;13.38;48.39;99255.03;147718;1147;104553;-77
2021/04/29 07:25:15;;;;;;;20.13;14.50;;;;;;;13.50;48.18;99260.66;147701;1146;104527;-74
2021/04/29 07:28:20;;;;;;;21.42;15.23;;;;;;;13.59;48.67;99250.59;147635;1147;104489;-76
2021/04/29 07:31:24;;;;;;;22.85;16.67;;;;;;;13.61;48.38;99262.80;147735;1147;104455;-74
2021/04/29 07:34:27;;;;;;;21.85;15.30;;;;;;;13.62;48.37;99266.30;147705;1148;104588;-74
2021/04/29 07:37:31;;;;;;;20.90;15.23;;;;;;;13.63;48.59;99263.43;147747;1147;104572;-74
2021/04/29 07:40:34;;;;;;;22.93;15.20;;;;;;;13.61;48.38;99268.16;147647;1147;104940;-75
2021/04/29 07:43:38;;;;;;;18.87;15.03;;;;;;;13.62;48.17;99269.80;147738;1147;104483;-74
2021/04/29 07:46:41;;;;;;;22.40;15.28;;;;;;;13.68;48.21;99271.72;147784;1148;104452;-74
2021/04/29 07:49:44;;;;;;;22.10;15.25;;;;;;;13.76;48.46;99270.73;147737;1148;105018;-74
2021/04/29 07:52:47;;;;;;;20.68;15.32;;;;;;;13.84;48.18;99261.69;147318;1147;104508;-76
2021/04/29 07:55:51;;;;;;;18.52;14.58;;;;;;;13.93;48.31;99265.84;147753;1147;104569;-75
2021/04/29 07:58:54;;;;;;;19.90;14.10;;;;;;;14.05;48.59;99258.90;147730;1147;104484;-74
2021/04/29 08:01:57;;;;;;;20.20;15.48;;;;;;;14.14;48.29;99262.22;147265;1147;104575;-75
2021/04/29 08:05:00;;;;;;;22.20;15.95;;;;;;;14.20;47.95;99260.59;147517;1147;104579;-76
2021/04/29 08:08:04;;;;;;;22.87;16.33;;;;;;;14.34;47.88;99252.39;147447;1147;104510;-74
2021/04/29 08:11:07;;;;;;;22.98;16.62;;;;;;;14.49;48.09;99241.48;147704;1147;104479;-74
2021/04/29 08:14:10;;;;;;;21.60;16.17;;;;;;;14.66;47.97;99246.48;147743;1147;104512;-74
2021/04/29 08:17:14;;;;;;;20.35;16.20;;;;;;;14.69;47.31;99229.98;147715;1148;104572;-75
2021/04/29 08:20:18;;;;;;;20.60;15.70;;;;;;;14.70;47.23;99223.56;147696;1147;104570;-76
2021/04/29 08:23:21;;;;;;;21.97;16.57;;;;;;;14.74;47.46;99240.91;147593;1147;104537;-73
2021/04/29 08:26:24;;;;;;;23.13;16.67;;;;;;;14.77;46.76;99229.77;147699;1147;104481;-74
2021/04/29 08:29:28;;;;;;;21.82;15.18;;;;;;;14.82;46.85;99224.63;147755;1148;104565;-75
2021/04/29 08:32:31;;;;;;;22.55;16.10;;;;;;;14.86;46.06;99220.48;147844;1147;104585;-75
2021/04/29 08:35:34;;;;;;;21.00;15.08;;;;;;;14.89;46.76;99225.42;147759;1147;104577;-75
2021/04/29 08:38:38;;;;;;;21.00;14.50;;;;;;;14.97;45.80;99228.95;147760;1147;104470;-75
2021/04/29 08:41:41;;;;;;;19.48;14.15;;;;;;;15.03;46.27;99220.05;147384;1148;104528;-75
2021/04/29 08:44:44;;;;;;;19.75;14.73;;;;;;;15.08;45.36;99223.77;147762;1147;104435;-75
2021/04/29 08:47:52;;;;;;;20.57;14.85;;;;;;;15.14;46.07;99213.23;147752;1147;104567;-75
2021/04/29 08:50:55;;;;;;;17.52;14.10;;;;;;;15.22;45.11;99218.39;147762;1147;104585;-75
2021/04/29 08:53:58;;;;;;;20.68;15.53;;;;;;;15.28;45.43;99214.86;147764;1148;104550;-74
2021/04/29 08:57:01;;;;;;;20.27;13.88;;;;;;;15.36;45.97;99201.23;147707;1147;104611;-75
2021/04/29 09:00:06;;;;;;;21.02;15.48;;;;;;;15.46;44.48;99198.09;147715;1148;104444;-74
2021/04/29 09:03:10;;;;;;;22.25;15.48;;;;;;;15.53;44.93;99185.47;147806;1147;104566;-75
2021/04/29 09:06:13;;;;;;;23.57;15.08;;;;;;;15.63;45.38;99193.91;147764;1147;104609;-75
2021/04/29 09:09:18;;;;;;;17.93;14.60;;;;;;;15.74;44.94;99194.31;147733;1147;104531;-74
2021/04/29 09:12:32;;;;;;;20.40;14.50;;;;;;;15.84;44.96;99184.76;147790;1147;104469;-75
2021/04/29 09:15:36;;;;;;;18.25;14.30;;;;;;;16.01;44.98;99192.33;147774;1148;104569;-75
2021/04/29 09:18:41;;;;;;;20.62;14.53;;;;;;;16.06;44.22;99184.44;147580;1147;104565;-74
2021/04/29 09:21:45;;;;;;;21.30;14.07;;;;;;;16.13;44.23;99179.01;147569;1147;104579;-74
2021/04/29 09:24:49;;;;;;;18.48;14.00;;;;;;;16.21;44.47;99186.85;147780;1148;104480;-75
2021/04/29 09:27:54;;;;;;;19.00;13.68;;;;;;;16.30;43.50;99188.22;147741;1148;104574;-75
2021/04/29 09:31:01;;;;;;;17.52;14.13;;;;;;;16.35;44.44;99177.64;147490;1148;104568;-74
2021/04/29 09:34:05;;;;;;;20.15;14.43;;;;;;;16.41;43.62;99170.56;147615;1147;104486;-75
2021/04/29 09:37:08;;;;;;;19.80;14.10;;;;;;;16.45;44.07;99167.20;147794;1147;104614;-75
2021/04/29 09:40:22;;;;;;;46.50;36.80;;;;;;;16.57;43.79;99166.50;147766;1147;104496;-77
2021/04/29 09:43:25;;;;;;;22.50;15.75;;;;;;;16.70;43.33;99171.79;147771;1147;104479;-76
2021/04/29 09:46:40;;;;;;;19.07;13.48;;;;;;;16.78;43.07;99155.37;147759;1147;104565;-76
2021/04/29 09:49:43;;;;;;;24.27;18.30;;;;;;;16.85;42.86;99155.33;147800;1147;104623;-75
2021/04/29 09:52:56;;;;;;;34.47;28.10;;;;;;;16.90;42.27;99151.97;147277;1147;104620;-74
2021/04/29 09:56:08;;;;;;;18.70;14.65;;;;;;;16.98;42.38;99151.70;147686;1147;104809;-74
2021/04/29 09:59:12;;;;;;;16.73;12.15;;;;;;;17.09;41.72;99142.89;147492;1148;104913;-75
2021/04/29 10:02:16;;;;;;;26.25;21.82;;;;;;;17.20;41.67;99150.21;147642;1147;104633;-74
2021/04/29 10:05:20;;;;;;;21.30;16.82;;;;;;;17.38;42.09;99143.17;147762;1147;104448;-75
2021/04/29 10:08:26;;;;;;;17.27;14.03;;;;;;;17.49;41.33;99137.03;147737;1147;104569;-75
2021/04/29 10:11:30;;;;;;;15.08;11.40;;;;;;;17.61;41.85;99132.55;147802;1147;104460;-74
2021/04/29 10:14:36;;;;;;;17.67;11.55;;;;;;;17.79;41.69;99128.17;147714;1147;104472;-74
2021/04/29 10:17:40;;;;;;;17.50;12.10;;;;;;;17.96;40.78;99129.22;147417;1147;104565;-74
2021/04/29 10:20:48;;;;;;;16.97;11.67;;;;;;;18.12;41.25;99121.52;147706;1147;104482;-75
2021/04/29 10:23:52;;;;;;;18.85;11.97;;;;;;;18.41;41.81;99109.02;147660;1147;104622;-75
2021/04/29 10:27:03;;;;;;;13.83;11.08;;;;;;;18.69;41.06;99110.21;147807;1147;105033;-74
2021/04/29 10:30:10;;;;;;;15.40;10.40;;;;;;;18.90;41.39;99089.92;147752;1147;104564;-75
2021/04/29 10:33:15;;;;;;;14.58;10.10;;;;;;;19.03;41.18;99108.59;147754;1147;104569;-76
2021/04/29 10:36:19;;;;;;;14.25;9.60;;;;;;;19.09;39.85;99099.56;147741;1147;104555;-74
2021/04/29 10:39:24;;;;;;;26.65;16.32;;;;;;;19.18;40.42;99097.30;147727;1147;104611;-75
2021/04/29 10:42:31;;;;;;;20.02;12.88;;;;;;;19.21;40.77;99094.95;147733;1148;104477;-75
2021/04/29 10:45:34;;;;;;;17.55;12.10;;;;;;;19.30;40.64;99083.75;147738;1148;104473;-76
2021/04/29 10:48:51;;;;;;;13.90;9.87;;;;;;;19.32;39.95;99081.63;147686;1148;104439;-75
2021/04/29 10:52:01;;;;;;;14.97;10.23;;;;;;;19.29;39.28;99084.83;147516;1147;104556;-75
2021/04/29 10:55:05;;;;;;;13.07;9.40;;;;;;;19.32;39.13;99081.63;147396;1147;104452;-74
2021/04/29 10:58:09;;;;;;;15.47;10.10;;;;;;;19.31;39.66;99085.41;147367;1148;104479;-75
2021/04/29 11:01:14;;;;;;;10.95;8.53;;;;;;;19.39;39.21;99076.91;147570;1146;104489;-75
2021/04/29 11:04:21;;;;;;;14.45;8.23;;;;;;;19.54;38.88;99079.11;147701;1147;104473;-76
2021/04/29 11:07:26;;;;;;;10.70;7.90;;;;;;;19.68;39.25;99085.05;147764;1148;104566;-75
2021/04/29 11:10:33;;;;;;;13.32;8.98;;;;;;;19.75;39.45;99080.36;147738;1147;104620;-75
2021/04/29 11:13:37;;;;;;;10.15;8.18;;;;;;;19.84;38.95;99084.30;147769;1148;104597;-75
2021/04/29 11:16:52;;;;;;;10.50;7.58;;;;;;;19.78;37.88;99085.27;147745;1147;104513;-75
2021/04/29 11:19:58;;;;;;;10.28;8.00;;;;;;;19.70;37.94;99083.74;147723;1147;104609;-75
2021/04/29 11:23:02;;;;;;;10.13;7.30;;;;;;;19.70;37.58;99072.10;147766;1147;104489;-78
2021/04/29 11:26:06;;;;;;;13.50;8.35;;;;;;;19.67;38.11;99077.98;147742;1147;104601;-75
2021/04/29 11:29:09;;;;;;;11.78;8.10;;;;;;;19.59;38.00;99076.48;147798;1147;104484;-75
2021/04/29 11:32:12;;;;;;;10.43;6.83;;;;;;;19.52;37.65;99068.52;147342;1147;104674;-75
2021/04/29 11:35:23;;;;;;;10.20;7.10;;;;;;;19.48;37.73;99059.25;147468;1147;104555;-75
2021/04/29 11:38:26;;;;;;;9.90;6.35;;;;;;;19.50;37.64;99061.72;147745;1147;104476;-76
2021/04/29 11:41:31;;;;;;;9.07;6.37;;;;;;;19.45;36.78;99057.02;147718;1147;104565;-75
2021/04/29 11:44:34;;;;;;;9.45;6.42;;;;;;;19.38;37.40;99059.88;147689;1147;104478;-74
2021/04/29 11:47:38;;;;;;;8.00;5.87;;;;;;;19.29;36.79;99057.78;147426;1147;104477;-75
2021/04/29 11:50:44;;;;;;;10.08;6.25;;;;;;;19.28;36.93;99053.42;147744;1148;104492;-75
2021/04/29 11:53:47;;;;;;;7.60;5.60;;;;;;;19.33;37.21;99051.64;147850;1147;104447;-75
2021/04/29 11:56:52;;;;;;;6.87;5.60;;;;;;;19.39;36.60;99049.86;147480;1146;104655;-74
2021/04/29 11:59:55;;;;;;;6.85;5.78;;;;;;;19.46;34.05;99050.55;147533;1147;104613;-75
2021/04/29 12:03:00;;;;;;;8.73;5.90;;;;;;;19.56;36.59;99034.51;147780;1147;104511;-76
2021/04/29 12:06:05;;;;;;;7.83;5.70;;;;;;;19.67;36.42;99026.56;147962;1146;104529;-75
2021/04/29 12:09:12;;;;;;;9.40;5.83;;;;;;;19.74;36.78;99036.20;147554;1148;104910;-74
2021/04/29 12:12:18;;;;;;;8.65;6.35;;;;;;;19.84;36.52;99029.34;147678;1147;104641;-77
2021/04/29 12:15:24;;;;;;;8.28;5.42;;;;;;;19.89;36.73;99029.44;147724;1146;104562;-75
2021/04/29 12:18:28;;;;;;;8.50;5.37;;;;;;;19.99;36.59;99025.00;147909;1147;104495;-75
2021/04/29 12:21:33;;;;;;;7.13;5.60;;;;;;;20.04;36.52;99015.35;147880;1147;104588;-76
2021/04/29 12:24:44;;;;;;;7.58;5.33;;;;;;;20.11;36.51;99018.70;147843;1147;104489;-76
2021/04/29 12:27:47;;;;;;;6.63;4.90;;;;;;;20.20;36.97;99006.39;147892;1147;104675;-75
2021/04/29 12:30:50;;;;;;;8.23;5.10;;;;;;;20.33;35.85;99011.48;147815;1147;104615;-75
2021/04/29 12:33:55;;;;;;;6.95;5.30;;;;;;;20.40;36.04;99001.30;147726;1147;104483;-75
2021/04/29 12:37:02;;;;;;;5.80;4.45;;;;;;;20.49;36.30;99009.00;147755;1147;104570;-76
2021/04/29 12:40:08;;;;;;;7.35;4.65;;;;;;;20.59;35.39;98998.30;147828;1148;104588;-75
2021/04/29 12:43:14;;;;;;;7.20;4.00;;;;;;;20.71;35.97;99004.48;147809;1147;104966;-75
2021/04/29 12:46:17;;;;;;;7.42;4.10;;;;;;;20.85;34.80;99002.22;147582;1147;104572;-76
2021/04/29 12:49:20;;;;;;;7.25;4.17;;;;;;;20.95;35.70;99004.23;147455;1147;104489;-75
2021/04/29 12:52:23;;;;;;;6.10;4.12;;;;;;;21.08;35.75;99000.34;147777;1147;104569;-75
2021/04/29 12:55:27;;;;;;;5.23;3.60;;;;;;;21.14;35.11;99000.13;147431;1148;104535;-75
2021/04/29 12:58:33;;;;;;;9.28;3.92;;;;;;;21.12;35.91;98996.05;147318;1148;104605;-75
2021/04/29 13:01:36;;;;;;;6.83;3.75;;;;;;;21.04;35.13;98999.20;147810;1147;104569;-75
2021/04/29 13:04:40;;;;;;;4.22;3.50;;;;;;;20.94;35.77;99005.33;147472;1147;104476;-74
2021/04/29 13:07:44;;;;;;;4.90;3.27;;;;;;;20.87;35.37;98989.22;147617;1147;104860;-75
2021/04/29 13:10:47;;;;;;;5.70;3.77;;;;;;;20.86;35.82;98993.03;147776;1147;104576;-75
2021/04/29 13:14:01;;;;;;;6.27;3.37;;;;;;;20.86;35.24;98984.05;147746;1147;104547;-75
2021/04/29 13:17:12;;;;;;;7.27;4.10;;;;;;;20.84;35.09;98989.72;147807;1147;104573;-76
2021/04/29 13:20:19;;;;;;;5.40;3.80;;;;;;;20.79;35.54;98982.35;147761;1147;104522;-76
2021/04/29 13:23:22;;;;;;;7.87;3.87;;;;;;;20.74;35.35;98974.14;147688;1147;104563;-75
2021/04/29 13:26:25;;;;;;;6.35;3.55;;;;;;;20.67;34.88;98978.95;147719;1147;104572;-75
2021/04/29 13:29:30;;;;;;;5.30;3.92;;;;;;;20.62;35.15;98970.73;147742;1147;105172;-76
2021/04/29 13:32:33;;;;;;;7.67;4.37;;;;;;;20.59;35.61;98971.20;147331;1147;104534;-75
2021/04/29 13:35:37;;;;;;;4.90;3.60;;;;;;;20.57;35.28;98952.50;147361;1147;104577;-75
2021/04/29 13:38:40;;;;;;;8.68;3.98;;;;;;;20.56;35.39;98953.55;147731;1147;104444;-75
2021/04/29 13:41:44;;;;;;;5.22;4.28;;;;;;;20.61;35.28;98952.01;147691;1147;104614;-75
2021/04/29 13:44:47;;;;;;;5.03;3.53;;;;;;;20.68;35.01;98945.33;147239;1147;104527;-75
2021/04/29 13:47:50;;;;;;;5.10;4.00;;;;;;;20.72;35.16;98948.36;147765;1147;105017;-77
2021/04/29 13:50:54;;;;;;;6.05;4.00;;;;;;;20.72;35.35;98948.36;147757;1148;104563;-75
2021/04/29 13:53:57;;;;;;;7.03;4.40;;;;;;;20.71;34.88;98939.42;147719;1147;104497;-74
2021/04/29 13:57:00;;;;;;;6.40;4.50;;;;;;;20.67;35.13;98934.73;147799;1147;104464;-76
2021/04/29 14:00:07;;;;;;;6.22;4.28;;;;;;;20.65;33.93;98932.30;147789;1147;104619;-75